Time;durP1;ratioP1;P1;durP2;ratioP2;P2;SDS_P1;SDS_P2;PMS_P1;PMS_P2;Temp;Humidity;BMP_temperature;BMP_pressure;BME280_temperature;BME280_humidity;BME280_pressure;Samples;Min_cycle;Max_cycle;Signal;HPM_P1;HPM_P2
2022/12/21 00:01:43;;;;;;;30.87;20.97;;;;;;;5.66;67.69;97848.47;8315917;28;20237;-67
2022/12/21 00:05:50;;;;;;;27.20;19.53;;;;;;;5.83;67.82;97831.75;8316306;28;20306;-67
2022/12/21 00:09:54;;;;;;;27.90;19.30;;;;;;;6.33;65.39;97836.38;8315326;28;20249;-67
2022/12/21 00:13:59;;;;;;;27.70;19.70;;;;;;;5.67;67.59;97834.75;8315981;28;20574;-67
2022/12/21 00:18:02;;;;;;;28.20;19.83;;;;;;;5.80;67.56;97821.56;8315447;28;20234;-67
2022/12/21 00:22:05;;;;;;;26.30;18.83;;;;;;;6.24;65.90;97822.91;8315706;28;20230;-67
2022/12/21 00:26:10;;;;;;;26.80;20.33;;;;;;;5.71;67.09;97825.22;8315346;28;20230;-68
2022/12/21 00:30:13;;;;;;;26.83;19.37;;;;;;;5.83;67.16;97814.59;8315611;28;20230;-67
2022/12/21 00:34:18;;;;;;;29.93;20.20;;;;;;;5.96;67.32;97815.16;8315412;28;20230;-67
2022/12/21 00:38:21;;;;;;;24.97;17.80;;;;;;;6.30;66.19;97810.75;8315064;28;20230;-67
2022/12/21 00:42:26;;;;;;;25.37;19.10;;;;;;;5.99;67.24;97802.19;8315024;28;20226;-67
2022/12/21 00:46:30;;;;;;;27.37;19.37;;;;;;;5.93;67.63;97807.47;8314943;28;20252;-67
2022/12/21 00:50:34;;;;;;;25.90;19.20;;;;;;;6.12;66.93;97802.69;8314922;28;20226;-67
2022/12/21 00:54:37;;;;;;;29.13;18.93;;;;;;;6.11;66.85;97803.59;8314629;28;20378;-67
2022/12/21 00:58:43;;;;;;;25.03;17.40;;;;;;;6.32;66.11;97799.53;8314693;28;20257;-67
2022/12/21 01:02:46;;;;;;;24.93;18.20;;;;;;;5.70;66.67;97725.91;8314040;28;20632;-67
2022/12/21 01:06:49;;;;;;;27.53;19.33;;;;;;;6.25;66.12;97792.91;8314193;28;20316;-67
2022/12/21 01:10:57;;;;;;;25.60;18.57;;;;;;;6.53;65.28;97794.63;8313754;28;20494;-67
2022/12/21 01:15:01;;;;;;;26.93;19.13;;;;;;;6.03;66.95;97780.66;8313123;28;20235;-67
2022/12/21 01:19:05;;;;;;;26.53;17.97;;;;;;;6.49;66.29;97790.47;8313997;28;20260;-67
2022/12/21 01:23:09;;;;;;;23.93;17.60;;;;;;;5.15;68.85;97694.88;8313941;28;20293;-67
2022/12/21 01:27:12;;;;;;;27.87;20.20;;;;;;;5.68;69.32;97795.31;8313089;28;20243;-67
2022/12/21 01:31:16;;;;;;;27.80;19.47;;;;;;;5.68;69.61;97802.19;8313648;28;20226;-67
2022/12/21 01:35:20;;;;;;;27.23;19.30;;;;;;;5.29;71.41;97808.34;8313194;28;20350;-67
2022/12/21 01:39:23;;;;;;;27.50;19.80;;;;;;;5.16;73.01;97801.84;8313449;28;20226;-67
2022/12/21 01:43:54;;;;;;;28.37;20.90;;;;;;;4.85;73.95;97812.00;8313010;28;20230;-66
2022/12/21 01:47:59;;;;;;;27.47;20.07;;;;;;;4.75;74.22;97756.66;8278118;28;20233;-67
2022/12/21 01:52:04;;;;;;;27.93;19.40;;;;;;;5.16;72.92;97799.25;8313071;28;20230;-67
2022/12/21 01:56:10;;;;;;;26.93;18.23;;;;;;;5.70;71.12;97799.56;8313063;28;20237;-67
2022/12/21 02:00:13;;;;;;;26.10;18.13;;;;;;;5.32;72.12;97804.00;8312820;28;20242;-67
2022/12/21 02:04:18;;;;;;;26.90;19.20;;;;;;;5.47;71.12;97809.56;8312639;28;20226;-67
2022/12/21 02:08:21;;;;;;;25.10;18.13;;;;;;;5.82;70.89;97806.94;8312459;28;20537;-67
2022/12/21 02:12:24;;;;;;;23.97;17.03;;;;;;;5.67;71.31;97806.50;8312373;28;20226;-67
2022/12/21 02:16:30;;;;;;;22.53;17.03;;;;;;;5.16;72.10;97750.50;8312126;28;20312;-67
2022/12/21 02:20:46;;;;;;;25.07;17.87;;;;;;;5.06;73.74;97773.00;8312126;28;20237;-67
2022/12/21 02:25:17;;;;;;;30.10;18.93;;;;;;;4.87;74.86;97772.59;8311771;28;20245;-66
2022/12/21 02:29:47;;;;;;;24.43;18.13;;;;;;;5.29;73.82;97784.38;8311395;28;20237;-66
2022/12/21 02:34:06;;;;;;;24.93;18.23;;;;;;;5.23;73.80;97775.09;8311495;28;20232;-68
2022/12/21 02:38:17;;;;;;;25.03;18.83;;;;;;;4.87;74.57;97770.03;8312104;28;20505;-67
2022/12/21 02:46:57;;;;;;;27.60;19.20;;;;;;;5.03;73.83;97760.22;8311933;28;20230;-67
2022/12/21 02:51:04;;;;;;;27.13;19.00;;;;;;;4.89;74.64;97745.19;8311165;28;20503;-67
2022/12/21 02:55:10;;;;;;;28.57;18.33;;;;;;;5.11;75.09;97769.47;8311684;28;20241;-67
2022/12/21 02:59:14;;;;;;;25.53;17.23;;;;;;;5.21;73.71;97733.22;8312104;28;20498;-67
2022/12/21 03:08:10;;;;;;;25.37;18.20;;;;;;;5.32;73.54;97750.91;8311886;28;20234;-67
2022/12/21 03:12:20;;;;;;;21.63;16.00;;;;;;;5.32;73.59;97743.22;8311622;28;20226;-67
2022/12/21 03:16:28;;;;;;;26.23;17.73;;;;;;;5.59;72.84;97745.91;8311705;28;20423;-67
2022/12/21 03:20:34;;;;;;;23.33;17.03;;;;;;;5.28;74.02;97742.44;8311487;28;20242;-67
2022/12/21 03:24:40;;;;;;;23.47;17.30;;;;;;;5.50;72.97;97747.00;8311681;28;20410;-67
2022/12/21 03:28:44;;;;;;;20.13;15.23;;;;;;;5.63;73.23;97740.63;8311761;28;20548;-67
2022/12/21 03:32:50;;;;;;;24.60;17.83;;;;;;;5.20;74.82;97738.41;8311909;28;20223;-67
2022/12/21 03:36:57;;;;;;;19.37;15.70;;;;;;;5.65;73.70;97727.75;8314930;28;20433;-67
2022/12/21 03:41:03;;;;;;;22.40;16.03;;;;;;;5.59;73.48;97695.38;8316990;28;20254;-66
2022/12/21 03:45:08;;;;;;;20.80;15.33;;;;;;;5.83;72.98;97727.22;8317035;28;20265;-68
2022/12/21 03:49:16;;;;;;;23.73;17.33;;;;;;;5.52;73.84;97714.44;8316999;28;20235;-67
2022/12/21 03:53:27;;;;;;;21.80;15.33;;;;;;;5.77;74.34;97722.28;8316725;28;20380;-66
2022/12/21 03:57:32;;;;;;;20.67;15.90;;;;;;;5.63;75.53;97717.50;8316687;28;20226;-66
2022/12/21 04:01:40;;;;;;;21.67;16.03;;;;;;;5.49;75.78;97719.66;8316195;28;20237;-67
2022/12/21 04:05:47;;;;;;;18.60;14.83;;;;;;;5.88;73.45;97704.81;8316256;28;20231;-67
2022/12/21 04:09:55;;;;;;;24.93;17.93;;;;;;;5.37;75.51;97712.25;8316521;28;20233;-66
2022/12/21 04:14:00;;;;;;;20.90;15.63;;;;;;;5.79;75.07;97709.38;8315492;28;20238;-67
2022/12/21 04:18:02;;;;;;;20.43;15.40;;;;;;;5.45;77.10;97706.03;8316250;28;20231;-67
2022/12/21 04:22:05;;;;;;;17.70;14.63;;;;;;;5.51;75.04;97652.81;8315981;28;20226;-66
2022/12/21 04:30:30;;;;;;;21.13;16.07;;;;;;;5.45;75.72;97713.75;8315387;28;20230;-67
2022/12/21 04:34:33;;;;;;;21.67;15.80;;;;;;;5.96;74.74;97714.91;8315532;28;20512;-67
2022/12/21 04:38:38;;;;;;;22.27;17.00;;;;;;;5.84;75.31;97698.06;8315521;28;20230;-67
2022/12/21 04:42:40;;;;;;;19.47;15.57;;;;;;;6.01;74.56;97692.44;8314875;28;20421;-66
2022/12/21 04:46:45;;;;;;;15.97;12.83;;;;;;;6.12;75.54;97701.59;8315005;28;20525;-67
2022/12/21 04:50:47;;;;;;;19.20;14.37;;;;;;;6.50;72.81;97692.66;8314892;28;20305;-67
2022/12/21 04:54:51;;;;;;;17.73;14.23;;;;;;;6.31;73.67;97678.72;8314911;28;20237;-67
2022/12/21 04:58:53;;;;;;;16.23;13.17;;;;;;;6.67;72.12;97686.97;8314490;28;20426;-68
2022/12/21 05:02:58;;;;;;;17.80;13.70;;;;;;;6.73;70.68;97673.06;8314457;28;20408;-67
2022/12/21 05:07:01;;;;;;;19.17;14.20;;;;;;;6.77;71.31;97682.34;8314182;28;20234;-66
2022/12/21 05:11:08;;;;;;;16.80;12.63;;;;;;;6.81;71.59;97678.78;8314268;28;20401;-66
2022/12/21 05:15:13;;;;;;;18.97;14.10;;;;;;;6.63;72.34;97657.91;8313866;28;20425;-66
2022/12/21 05:19:17;;;;;;;17.90;14.33;;;;;;;6.89;70.96;97675.94;8314141;28;20226;-67
2022/12/21 05:23:20;;;;;;;17.37;14.03;;;;;;;6.61;72.42;97671.72;8313703;28;20226;-66
2022/12/21 05:27:23;;;;;;;18.17;14.33;;;;;;;6.87;71.57;97675.16;8314033;28;20236;-66
2022/12/21 05:31:26;;;;;;;17.87;14.50;;;;;;;6.89;71.83;97678.50;8314001;28;20318;-66
2022/12/21 05:35:31;;;;;;;15.73;13.07;;;;;;;6.94;72.03;97674.06;8314164;28;20226;-66
2022/12/21 05:39:33;;;;;;;17.20;12.57;;;;;;;6.97;71.88;97674.78;8313980;28;20233;-66
2022/12/21 05:43:36;;;;;;;16.37;13.40;;;;;;;6.94;72.33;97674.06;8313515;28;20377;-67
2022/12/21 05:47:39;;;;;;;16.77;13.47;;;;;;;6.75;73.17;97656.66;8313479;28;20244;-66
2022/12/21 05:51:43;;;;;;;17.40;13.93;;;;;;;6.87;71.86;97650.25;8313372;28;20241;-66
2022/12/21 05:55:46;;;;;;;19.43;14.23;;;;;;;7.00;72.57;97684.13;8313274;28;20241;-67
2022/12/21 05:59:49;;;;;;;16.10;13.57;;;;;;;6.96;73.26;97667.94;8312780;28;20230;-67
2022/12/21 06:03:52;;;;;;;20.67;14.73;;;;;;;6.79;75.38;97675.41;8312700;28;20510;-68
2022/12/21 06:07:56;;;;;;;15.43;12.70;;;;;;;7.12;73.41;97677.72;8312909;28;20234;-67
2022/12/21 06:11:59;;;;;;;15.17;12.37;;;;;;;7.22;72.93;97687.66;8312774;28;20238;-66
2022/12/21 06:16:05;;;;;;;15.33;12.10;;;;;;;7.15;71.58;97647.53;8312616;28;20253;-67
2022/12/21 06:20:09;;;;;;;13.90;11.83;;;;;;;7.44;71.78;97680.00;8312249;28;20402;-67
2022/12/21 06:24:13;;;;;;;16.37;14.00;;;;;;;7.30;72.44;97676.25;8312230;28;20452;-66
2022/12/21 06:28:16;;;;;;;15.03;13.33;;;;;;;7.42;72.15;97680.94;8313143;28;20233;-67
2022/12/21 06:32:18;;;;;;;13.97;12.50;;;;;;;7.30;73.57;97679.66;8312672;28;20513;-67
2022/12/21 06:36:21;;;;;;;19.47;16.93;;;;;;;7.23;74.08;97680.75;8312317;28;20226;-67
2022/12/21 06:40:26;;;;;;;15.97;13.20;;;;;;;6.99;74.55;97667.03;8311598;28;20230;-67
2022/12/21 06:44:29;;;;;;;16.23;13.50;;;;;;;7.04;74.54;97681.41;8312130;28;20328;-67
2022/12/21 06:48:33;;;;;;;16.60;13.50;;;;;;;6.73;74.82;97634.44;8311612;28;20226;-67
2022/12/21 06:52:35;;;;;;;17.13;13.83;;;;;;;6.90;76.01;97678.47;8311412;28;20273;-66
2022/12/21 06:56:40;;;;;;;18.57;14.57;;;;;;;7.08;75.54;97683.88;8311668;28;20257;-67
2022/12/21 07:00:43;;;;;;;17.93;14.43;;;;;;;7.16;74.60;97668.97;8311669;28;20336;-67
2022/12/21 07:04:46;;;;;;;18.23;14.50;;;;;;;7.23;75.30;97689.34;8311484;28;20237;-66
2022/12/21 07:08:49;;;;;;;17.77;15.13;;;;;;;7.04;75.88;97685.72;8310976;28;20230;-67
2022/12/21 07:12:54;;;;;;;23.40;17.73;;;;;;;6.92;77.82;97694.69;8316476;28;20241;-68
2022/12/21 07:16:57;;;;;;;23.37;18.13;;;;;;;6.93;77.55;97693.81;8317260;28;20268;-65
2022/12/21 07:21:02;;;;;;;23.87;18.00;;;;;;;6.92;78.59;97694.69;8317798;28;20226;-65
2022/12/21 07:25:06;;;;;;;21.97;17.80;;;;;;;7.03;77.55;97696.91;8317466;28;20388;-66
2022/12/21 07:29:12;;;;;;;22.40;19.17;;;;;;;6.97;78.41;97705.69;8317474;28;20234;-66
2022/12/21 07:33:15;;;;;;;17.43;14.93;;;;;;;7.25;77.59;97707.28;8315517;28;20234;-65
2022/12/21 07:37:18;;;;;;;17.63;14.07;;;;;;;7.26;76.46;97679.81;8317093;28;20222;-65
2022/12/21 07:41:21;;;;;;;25.20;18.33;;;;;;;7.04;77.83;97696.88;8316524;28;20230;-66
2022/12/21 07:45:26;;;;;;;18.93;15.17;;;;;;;7.50;76.37;97715.00;8316663;28;20320;-66
2022/12/21 07:49:29;;;;;;;16.00;13.77;;;;;;;7.62;76.25;97711.97;8316250;28;20249;-66
2022/12/21 07:53:33;;;;;;;13.93;12.37;;;;;;;7.73;75.76;97719.34;8316563;28;20371;-66
2022/12/21 07:57:36;;;;;;;22.37;16.60;;;;;;;7.53;77.03;97722.63;8316368;28;20226;-66
2022/12/21 08:01:41;;;;;;;17.23;14.70;;;;;;;7.66;78.06;97704.16;8316305;28;20233;-68
2022/12/21 08:05:45;;;;;;;15.03;13.30;;;;;;;7.81;78.84;97712.16;8316697;28;20451;-66
2022/12/21 08:09:47;;;;;;;16.37;14.63;;;;;;;7.90;77.64;97710.97;8316361;28;20230;-67
2022/12/21 08:13:50;;;;;;;14.57;12.97;;;;;;;7.85;79.10;97722.34;8316200;28;20226;-67
2022/12/21 08:17:54;;;;;;;15.27;13.13;;;;;;;7.98;78.47;97719.25;8315909;28;20235;-67
2022/12/21 08:21:57;;;;;;;19.07;15.73;;;;;;;8.12;77.40;97717.88;8315562;28;20226;-67
2022/12/21 08:26:02;;;;;;;15.70;13.33;;;;;;;8.13;78.28;97716.97;8315671;28;20230;-67
2022/12/21 08:30:06;;;;;;;18.33;13.80;;;;;;;8.22;77.91;97721.78;8315755;28;20426;-66
2022/12/21 08:34:11;;;;;;;18.23;14.00;;;;;;;8.12;77.59;97716.13;8315779;28;20309;-67
2022/12/21 08:38:14;;;;;;;18.57;13.47;;;;;;;8.27;77.82;97717.28;8315957;28;20441;-68
2022/12/21 08:42:36;;;;;;;15.87;13.10;;;;;;;8.37;75.23;97715.19;8314737;28;20257;-66
2022/12/21 08:46:39;;;;;;;9.73;8.20;;;;;;;10.72;77.53;97733.38;8314989;28;20237;-66
2022/12/21 08:50:50;;;;;;;9.07;8.17;;;;;;;11.18;67.10;97719.88;8315172;28;20231;-66
2022/12/21 08:54:53;;;;;;;14.17;12.37;;;;;;;9.93;67.75;97691.34;8314854;28;20232;-69
2022/12/21 08:58:56;;;;;;;15.37;13.50;;;;;;;9.68;69.84;97738.19;8314945;28;20272;-68
2022/12/21 09:02:59;;;;;;;15.93;13.23;;;;;;;9.33;70.71;97741.41;8314900;28;20624;-69
2022/12/21 09:07:03;;;;;;;14.27;11.97;;;;;;;9.03;71.71;97720.28;8314769;28;20259;-68
2022/12/21 09:11:08;;;;;;;14.33;12.80;;;;;;;9.06;71.64;97733.06;8314855;28;20262;-68
2022/12/21 09:15:11;;;;;;;13.73;11.10;;;;;;;8.94;72.28;97736.16;8314685;28;20229;-67
2022/12/21 09:19:14;;;;;;;14.77;12.80;;;;;;;8.49;75.20;97737.97;8315167;28;20226;-67
2022/12/21 09:23:18;;;;;;;13.93;11.47;;;;;;;8.46;75.56;97739.84;8315551;28;20517;-67
2022/12/21 09:27:21;;;;;;;12.40;11.10;;;;;;;8.73;74.89;97736.13;8315280;28;20252;-67
2022/12/21 09:31:24;;;;;;;13.27;11.63;;;;;;;8.72;73.24;97734.47;8315024;28;20223;-67
2022/12/21 09:35:27;;;;;;;14.17;12.67;;;;;;;8.68;73.94;97735.50;8313283;28;20295;-67
2022/12/21 09:39:32;;;;;;;11.97;10.77;;;;;;;8.99;72.64;97732.50;8313892;28;20573;-67
2022/12/21 09:43:43;;;;;;;13.30;12.03;;;;;;;8.84;73.02;97725.38;8314519;28;20410;-67
2022/12/21 09:47:48;;;;;;;13.17;11.70;;;;;;;8.59;75.95;97715.22;8313976;28;20241;-67
2022/12/21 09:51:55;;;;;;;14.33;12.83;;;;;;;8.85;73.88;97723.63;8313986;28;20233;-69
2022/12/21 09:56:00;;;;;;;15.50;13.23;;;;;;;8.84;75.06;97732.28;8313261;28;20238;-67
2022/12/21 10:00:10;;;;;;;16.27;14.13;;;;;;;8.55;76.57;97714.50;8313237;28;20230;-67
2022/12/21 10:04:25;;;;;;;14.53;12.77;;;;;;;8.96;73.80;97727.44;8313456;28;20230;-67
2022/12/21 10:08:58;;;;;;;15.20;12.67;;;;;;;8.15;75.03;97614.59;8312424;28;20303;-67
2022/12/21 10:13:07;;;;;;;13.13;11.77;;;;;;;8.82;75.20;97714.28;8312331;28;20234;-67
2022/12/21 10:17:13;;;;;;;15.90;12.50;;;;;;;8.88;75.27;97716.59;8313090;28;20230;-67
2022/12/21 10:21:44;;;;;;;13.63;11.20;;;;;;;9.02;74.08;97710.84;8312837;28;20416;-67
2022/12/21 10:25:48;;;;;;;17.43;13.50;;;;;;;8.93;75.54;97718.97;8313103;28;20446;-67
2022/12/21 10:29:55;;;;;;;12.83;11.53;;;;;;;8.91;75.28;97708.72;8313298;28;20238;-67
2022/12/21 10:33:58;;;;;;;18.93;15.23;;;;;;;8.78;75.82;97708.38;8312655;28;20226;-67
2022/12/21 10:38:01;;;;;;;14.67;11.80;;;;;;;9.02;74.98;97705.69;8312529;28;20239;-67
2022/12/21 10:42:07;;;;;;;14.70;13.20;;;;;;;9.05;73.99;97671.16;8311461;28;20658;-67
2022/12/21 10:46:12;;;;;;;11.47;10.37;;;;;;;9.16;75.07;97705.94;8317115;28;20791;-67
2022/12/21 10:50:17;;;;;;;12.00;10.80;;;;;;;9.00;76.10;97710.06;8319110;28;20254;-67
2022/12/21 10:54:26;;;;;;;11.07;9.93;;;;;;;8.66;74.07;97597.88;8319189;28;20233;-65
2022/12/21 10:58:31;;;;;;;12.23;9.97;;;;;;;9.38;73.90;97711.00;8319327;28;20222;-66
2022/12/21 11:02:37;;;;;;;13.00;10.33;;;;;;;9.16;75.07;97681.88;8319179;28;20230;-67
2022/12/21 11:06:55;;;;;;;11.40;10.20;;;;;;;9.34;74.77;97706.06;8318943;28;20241;-67
2022/12/21 11:11:00;;;;;;;13.40;11.23;;;;;;;9.10;74.88;97685.53;8318026;28;20241;-67
2022/12/21 11:15:12;;;;;;;12.70;11.40;;;;;;;9.35;74.24;97693.06;8317806;28;20336;-67
2022/12/21 11:19:36;;;;;;;12.53;11.23;;;;;;;9.31;75.24;97688.94;8317771;28;20228;-68
2022/12/21 11:23:39;;;;;;;11.57;10.37;;;;;;;9.49;75.04;97692.44;8317849;28;20227;-68
2022/12/21 11:27:44;;;;;;;10.70;9.60;;;;;;;9.57;74.06;97689.53;8317672;28;20233;-68
2022/12/21 11:31:47;;;;;;;10.23;9.13;;;;;;;9.50;74.72;97660.53;8317759;28;20254;-68
2022/12/21 11:36:09;;;;;;;10.23;9.03;;;;;;;9.71;73.88;97687.19;8317459;28;20227;-67
2022/12/21 11:40:18;;;;;;;13.97;11.37;;;;;;;9.34;75.78;97673.28;8316593;28;20256;-67
2022/12/21 11:44:24;;;;;;;13.13;11.73;;;;;;;9.41;76.57;97683.38;8316753;28;20223;-68
2022/12/21 11:48:36;;;;;;;15.93;11.13;;;;;;;9.70;74.94;97685.47;8316899;28;20239;-68
2022/12/21 11:52:53;;;;;;;12.00;10.70;;;;;;;9.70;74.82;97669.97;8316442;28;20236;-68
2022/12/21 11:57:04;;;;;;;15.40;10.67;;;;;;;9.78;74.88;97674.78;8316871;28;20245;-68
2022/12/21 12:01:15;;;;;;;13.13;10.13;;;;;;;9.72;74.29;97654.38;8318188;28;20237;-68
2022/12/21 12:05:30;;;;;;;12.53;9.93;;;;;;;9.92;74.83;97671.59;8317841;28;20541;-67
2022/12/21 12:09:46;;;;;;;24.33;12.17;;;;;;;9.92;74.45;97662.06;8317581;28;20231;-68
2022/12/21 12:14:01;;;;;;;11.60;10.40;;;;;;;9.69;76.43;97657.09;8317391;28;20230;-68
2022/12/21 12:18:16;;;;;;;13.17;10.13;;;;;;;9.91;75.39;97655.22;8317062;28;20232;-68
2022/12/21 12:22:29;;;;;;;13.43;10.30;;;;;;;9.90;75.82;97652.69;8317361;28;20545;-67
2022/12/21 12:26:38;;;;;;;13.77;10.57;;;;;;;9.76;76.68;97653.34;8316616;28;20417;-68
2022/12/21 12:30:52;;;;;;;14.23;10.67;;;;;;;9.90;76.48;97655.28;8316769;28;20233;-68
2022/12/21 12:35:16;;;;;;;17.60;12.90;;;;;;;9.96;76.32;97653.25;8316588;28;20237;-67
2022/12/21 12:39:24;;;;;;;10.87;9.30;;;;;;;9.85;76.97;97636.56;8316629;28;20239;-67
2022/12/21 12:43:35;;;;;;;9.60;8.57;;;;;;;10.03;76.61;97650.38;8316176;28;20297;-67
2022/12/21 12:47:44;;;;;;;9.40;8.40;;;;;;;10.05;76.00;97633.03;8316297;28;20240;-67
2022/12/21 12:51:54;;;;;;;24.40;11.13;;;;;;;10.19;76.87;97651.34;8316635;28;20230;-67
2022/12/21 12:56:03;;;;;;;11.17;7.80;;;;;;;10.29;76.41;97642.22;8315813;28;20548;-67
2022/12/21 13:00:12;;;;;;;7.13;6.30;;;;;;;10.36;76.15;97641.03;8316137;28;20239;-68
2022/12/21 13:04:36;;;;;;;15.87;9.30;;;;;;;10.39;75.81;97639.22;8315969;28;20224;-68
2022/12/21 13:08:47;;;;;;;17.03;11.13;;;;;;;10.16;76.25;97607.47;8314770;28;20513;-69
2022/12/21 13:12:56;;;;;;;14.30;8.87;;;;;;;10.49;76.34;97636.09;8315849;28;20259;-69
2022/12/21 13:17:06;;;;;;;12.87;8.83;;;;;;;10.58;76.13;97645.16;8315440;28;20434;-69
2022/12/21 13:21:10;;;;;;;12.73;8.03;;;;;;;10.67;75.65;97623.16;8315403;28;20241;-69
2022/12/21 13:25:18;;;;;;;13.50;8.13;;;;;;;10.69;75.89;97629.09;8315481;28;20412;-69
2022/12/21 13:29:23;;;;;;;12.40;10.47;;;;;;;10.64;76.41;97629.34;8315152;28;20234;-68
2022/12/21 13:33:30;;;;;;;10.23;8.23;;;;;;;10.74;76.45;97640.91;8315089;28;20231;-69
2022/12/21 13:37:33;;;;;;;7.80;6.23;;;;;;;10.74;76.75;97635.72;8315015;28;20225;-69
2022/12/21 13:41:39;;;;;;;8.27;7.43;;;;;;;10.76;76.97;97636.47;8314600;28;20242;-68
2022/12/21 13:45:46;;;;;;;7.37;6.27;;;;;;;10.84;77.07;97635.25;8315024;28;20235;-68
2022/12/21 13:50:01;;;;;;;7.33;6.63;;;;;;;10.82;76.41;97631.91;8314731;28;20235;-69
2022/12/21 13:54:10;;;;;;;8.43;7.60;;;;;;;10.85;77.06;97640.38;8314417;28;20226;-68
2022/12/21 13:58:29;;;;;;;8.03;6.83;;;;;;;10.74;77.27;97620.19;8314290;28;20222;-67
2022/12/21 14:02:46;;;;;;;9.83;7.50;;;;;;;10.89;76.83;97636.69;8314549;28;20237;-67
2022/12/21 14:07:02;;;;;;;7.67;6.93;;;;;;;10.89;76.45;97638.44;8314132;28;20422;-66
2022/12/21 14:11:16;;;;;;;11.07;8.10;;;;;;;10.76;77.53;97638.22;8313686;28;20244;-69
2022/12/21 14:15:27;;;;;;;9.17;7.13;;;;;;;10.85;77.19;97629.13;8314131;28;20234;-67
2022/12/21 14:19:30;;;;;;;9.17;7.90;;;;;;;10.75;77.42;97613.22;8313760;28;20571;-67
2022/12/21 14:23:35;;;;;;;9.63;7.50;;;;;;;10.84;77.31;97625.72;8313694;28;20246;-67
2022/12/21 14:27:38;;;;;;;9.17;8.27;;;;;;;10.72;77.59;97614.25;8314290;28;20246;-67
2022/12/21 14:31:53;;;;;;;9.57;8.63;;;;;;;10.78;77.40;97625.22;8313605;28;20231;-67
2022/12/21 14:36:32;;;;;;;11.70;9.20;;;;;;;10.26;77.39;97551.78;8312846;28;20521;-67
2022/12/21 14:40:57;;;;;;;12.17;9.33;;;;;;;10.71;77.20;97629.84;8313369;28;20489;-67
2022/12/21 14:45:34;;;;;;;12.30;10.13;;;;;;;10.75;77.56;97628.78;8313097;28;20230;-68
2022/12/21 14:49:38;;;;;;;10.43;9.33;;;;;;;10.73;78.49;97630.59;8313221;28;20454;-68
2022/12/21 14:54:00;;;;;;;8.97;8.07;;;;;;;10.76;77.60;97633.88;8313447;28;20536;-68
2022/12/21 14:58:08;;;;;;;11.30;9.60;;;;;;;10.77;77.67;97642.47;8312459;28;20222;-68
2022/12/21 15:02:24;;;;;;;10.93;9.53;;;;;;;10.78;77.23;97645.94;8313251;28;20431;-67
2022/12/21 15:06:29;;;;;;;8.10;7.40;;;;;;;10.70;78.68;97644.56;8313469;28;20537;-68
2022/12/21 15:10:35;;;;;;;8.67;7.83;;;;;;;10.68;77.61;97637.75;8312642;28;20237;-68
2022/12/21 15:14:53;;;;;;;10.50;8.77;;;;;;;10.54;78.06;97622.91;8313045;28;20226;-68
2022/12/21 15:19:02;;;;;;;8.13;6.73;;;;;;;10.70;77.51;97641.09;8312491;28;20230;-67
2022/12/21 15:23:13;;;;;;;8.27;7.33;;;;;;;10.78;77.25;97644.16;8313186;28;20540;-68
2022/12/21 15:27:20;;;;;;;8.40;6.97;;;;;;;10.71;77.95;97646.22;8313026;28;20233;-68
2022/12/21 15:31:38;;;;;;;7.60;6.23;;;;;;;10.80;77.03;97646.69;8313504;28;20241;-68
2022/12/21 15:35:44;;;;;;;7.23;6.17;;;;;;;10.74;78.08;97650.44;8317588;28;20504;-68
2022/12/21 15:39:47;;;;;;;7.30;6.03;;;;;;;10.79;76.81;97647.59;8318516;28;20227;-69
2022/12/21 15:43:54;;;;;;;6.47;5.87;;;;;;;10.52;78.32;97635.94;8317954;28;20246;-68
2022/12/21 15:48:02;;;;;;;7.70;7.00;;;;;;;10.71;77.82;97650.56;8318401;28;20226;-68
2022/12/21 15:52:30;;;;;;;8.13;5.70;;;;;;;10.84;76.88;97656.81;8318023;28;20499;-68
2022/12/21 15:56:33;;;;;;;6.40;5.80;;;;;;;10.79;76.72;97648.41;8318137;28;20230;-68
2022/12/21 16:00:43;;;;;;;6.83;6.23;;;;;;;10.87;75.92;97661.84;8318500;28;20235;-69
2022/12/21 16:04:46;;;;;;;6.37;5.77;;;;;;;10.62;76.75;97625.13;8318104;28;20421;-68
2022/12/21 16:08:52;;;;;;;5.50;5.10;;;;;;;10.81;77.28;97653.53;8317863;28;20467;-68
2022/12/21 16:12:57;;;;;;;9.77;8.77;;;;;;;10.73;76.69;97651.31;8317167;28;20230;-69
2022/12/21 16:17:01;;;;;;;8.83;8.00;;;;;;;10.19;76.09;97563.34;8317491;28;20576;-69
2022/12/21 16:21:07;;;;;;;8.60;7.80;;;;;;;10.85;75.98;97665.41;8318779;28;20234;-69
2022/12/21 16:25:15;;;;;;;11.63;8.97;;;;;;;10.80;76.74;97662.22;8317999;28;20230;-69
2022/12/21 16:29:41;;;;;;;6.97;6.30;;;;;;;10.76;76.84;97659.78;8317261;28;20230;-67
2022/12/21 16:33:49;;;;;;;7.37;6.67;;;;;;;10.65;77.81;97671.59;8317150;28;20249;-68
2022/12/21 16:37:51;;;;;;;7.50;6.10;;;;;;;10.76;76.89;97654.59;8317597;28;20455;-69
2022/12/21 16:41:55;;;;;;;8.47;6.30;;;;;;;10.72;77.37;97650.50;8316559;28;20236;-69
2022/12/21 16:46:02;;;;;;;8.47;7.10;;;;;;;10.75;77.73;97647.72;8317733;28;20240;-69
2022/12/21 16:50:43;;;;;;;9.30;8.40;;;;;;;10.68;77.73;97650.72;8316129;28;20421;-68
2022/12/21 16:54:46;;;;;;;11.97;10.10;;;;;;;10.36;77.86;97599.63;8316586;28;20236;-68
2022/12/21 16:58:50;;;;;;;10.33;8.50;;;;;;;10.63;78.04;97652.72;8316517;28;20225;-68
2022/12/21 17:02:57;;;;;;;9.23;8.03;;;;;;;10.60;78.24;97650.25;8315724;28;20338;-69
2022/12/21 17:07:07;;;;;;;8.07;7.27;;;;;;;10.66;77.88;97655.13;8315867;28;20239;-70
2022/12/21 17:11:15;;;;;;;8.00;7.30;;;;;;;10.50;77.90;97624.81;8315771;28;20554;-68
2022/12/21 17:15:27;;;;;;;13.57;10.10;;;;;;;10.69;77.15;97658.41;8315968;28;20306;-68
2022/12/21 17:19:30;;;;;;;8.57;7.63;;;;;;;10.60;77.68;97652.84;8315812;28;20254;-69
2022/12/21 17:23:34;;;;;;;8.20;7.50;;;;;;;11.22;74.21;97640.22;8314356;28;20427;-69
2022/12/21 17:27:50;;;;;;;12.68;11.48;;;;;;;11.03;74.65;97648.94;8314852;28;20417;-68
2022/12/21 17:31:53;;;;;;;11.53;9.30;;;;;;;10.83;75.50;97643.94;8314838;28;20230;-70
2022/12/21 17:35:56;;;;;;;12.17;10.97;;;;;;;10.74;75.93;97651.25;8315387;28;20264;-69
2022/12/21 17:40:13;;;;;;;13.98;12.57;;;;;;;11.30;72.62;97638.88;8313779;28;20417;-69
2022/12/21 17:44:16;;;;;;;10.20;9.20;;;;;;;10.86;74.65;97662.75;8315277;28;20231;-69
2022/12/21 17:48:39;;;;;;;7.93;7.33;;;;;;;10.66;74.65;97652.53;8314650;28;20268;-69
2022/12/21 17:52:43;;;;;;;8.33;7.53;;;;;;;10.66;75.91;97668.06;8314533;28;20235;-69
2022/12/21 17:56:47;;;;;;;8.87;7.57;;;;;;;10.55;75.89;97660.84;8313940;28;20240;-69
2022/12/21 18:00:52;;;;;;;9.40;8.50;;;;;;;10.53;75.49;97660.94;8314592;28;20226;-68
2022/12/21 18:04:57;;;;;;;11.40;10.13;;;;;;;10.60;75.02;97660.63;8314118;28;20296;-69
2022/12/21 18:09:00;;;;;;;9.30;8.40;;;;;;;10.50;75.02;97658.47;8314124;28;20237;-69
2022/12/21 18:13:04;;;;;;;11.65;10.48;;;;;;;10.71;74.09;97643.63;8314727;28;20542;-69
2022/12/21 18:17:07;;;;;;;11.67;10.47;;;;;;;10.48;75.34;97654.28;8313598;28;20234;-69
2022/12/21 18:21:11;;;;;;;10.10;9.20;;;;;;;10.42;74.88;97639.91;8314211;28;20433;-69
2022/12/21 18:25:15;;;;;;;9.47;8.60;;;;;;;10.27;74.50;97620.75;8313824;28;20394;-69
2022/12/21 18:29:19;;;;;;;9.97;7.53;;;;;;;10.52;74.93;97648.06;8313854;28;20229;-68
2022/12/21 18:33:23;;;;;;;11.43;10.27;;;;;;;10.54;74.52;97641.03;8313608;28;20233;-69
2022/12/21 18:37:28;;;;;;;13.00;11.17;;;;;;;10.54;74.67;97628.09;8313871;28;20267;-69
2022/12/21 18:41:31;;;;;;;8.27;7.47;;;;;;;10.46;74.88;97638.84;8314149;28;20230;-69
2022/12/21 18:45:35;;;;;;;10.40;8.10;;;;;;;10.34;74.61;97634.28;8313859;28;20237;-69
2022/12/21 18:49:39;;;;;;;10.03;9.03;;;;;;;10.42;75.73;97642.50;8313579;28;20469;-69
2022/12/21 18:53:42;;;;;;;10.97;9.83;;;;;;;10.35;75.38;97638.50;8313658;28;20233;-68
2022/12/21 18:57:45;;;;;;;10.17;9.27;;;;;;;10.37;75.38;97640.09;8313823;28;20229;-69
2022/12/21 19:01:54;;;;;;;9.07;8.20;;;;;;;10.42;75.51;97631.31;8313689;28;20236;-70
2022/12/21 19:05:59;;;;;;;10.57;9.57;;;;;;;10.23;75.01;97613.22;8314556;28;20524;-69
2022/12/21 19:10:02;;;;;;;9.93;8.37;;;;;;;10.40;74.78;97620.19;8319771;28;20231;-69
2022/12/21 19:14:05;;;;;;;12.00;10.43;;;;;;;10.22;75.65;97625.28;8319286;28;20248;-70
2022/12/21 19:18:10;;;;;;;10.80;9.30;;;;;;;10.37;74.68;97621.16;8319058;28;20554;-71
2022/12/21 19:22:21;;;;;;;70.77;31.73;;;;;;;11.79;82.13;97614.69;8319275;28;20301;-66
2022/12/21 19:26:27;;;;;;;15.77;12.40;;;;;;;11.87;71.04;97619.44;8319247;28;20226;-67